Omaha, Georgia
Current Conditions -  °F | °C
As of 8:27 AM on Friday 24 Oct 2014 (Local Time) from KLSF Reporting Station
Moderate Fog Moderate Fog  
Wind Chill: 43°   Ceiling: Unl
Heat Index: 43°   Visibility: 0.25mi
Dew Point: 43°   Wind: 3mph
Humidity: 100%   Direction: 130°SE
Pressure: 30.06"   Gusts: NA
Location:  32.15°N, 85.01°W
Report Text: KLSF 241227Z AUTO 13003KT 1/4SM R33/1200FT FG CLR 06/06 A3006 RMK AO2 UPB1213E1227
Loading
Personal Weather Stations






























Interactive Weather Map
Tropical Storm Tracking
New forecast layout! Learn more

10-Day Weather Forecast

Advertisements
Track Severe Weather on mobile